Time;durP1;ratioP1;P1;durP2;ratioP2;P2;SDS_P1;SDS_P2;PMS_P1;PMS_P2;Temp;Humidity;BMP_temperature;BMP_pressure;BME280_temperature;BME280_humidity;BME280_pressure;Samples;Min_cycle;Max_cycle;Signal;HPM_P1;HPM_P2
2021/08/22 00:01:16;;;;;;;0.80;0.70;;;;;;;19.68;100.00;-21215.00;5032847;28;20514;-69
2021/08/22 00:03:43;;;;;;;0.93;0.90;;;;;;;19.63;100.00;-21213.78;5034105;28;20472;-69
2021/08/22 00:06:11;;;;;;;1.20;0.80;;;;;;;19.56;100.00;-21211.84;5052456;28;20447;-68
2021/08/22 00:08:40;;;;;;;0.70;0.60;;;;;;;19.52;100.00;-21210.75;5053547;28;20483;-69
2021/08/22 00:11:07;;;;;;;0.70;0.67;;;;;;;19.48;100.00;-21209.81;5053277;28;20515;-69
2021/08/22 00:13:35;;;;;;;0.70;0.70;;;;;;;19.39;100.00;-21207.22;5053588;28;20427;-69
2021/08/22 00:16:02;;;;;;;0.70;0.60;;;;;;;19.30;100.00;-21204.88;5052866;28;21053;-68
2021/08/22 00:18:31;;;;;;;0.70;0.70;;;;;;;19.25;100.00;-21203.66;5053226;28;20424;-68
2021/08/22 00:20:58;;;;;;;0.80;0.70;;;;;;;19.18;100.00;-21108.44;5052786;28;21061;-68
2021/08/22 00:23:28;;;;;;;0.70;0.60;;;;;;;19.11;100.00;-21109.06;5052989;28;20443;-69
2021/08/22 00:25:56;;;;;;;0.70;0.60;;;;;;;19.03;100.00;-21190.66;5052730;28;20493;-69
2021/08/22 00:28:41;;;;;;;0.70;0.60;;;;;;;19.03;100.00;-21197.63;5038323;28;20912;-69
2021/08/22 00:31:08;;;;;;;2.30;1.10;;;;;;;18.99;100.00;-21196.53;5033842;28;20434;-69
2021/08/22 00:33:35;;;;;;;1.93;1.00;;;;;;;18.97;100.00;-21196.13;5049892;28;20855;-70
2021/08/22 00:36:03;;;;;;;0.70;0.70;;;;;;;18.98;100.00;-21196.41;5042417;28;20931;-69
2021/08/22 00:38:51;;;;;;;0.70;0.67;;;;;;;18.93;100.00;-21194.91;5032637;28;20455;-69
2021/08/22 00:41:18;;;;;;;0.70;0.60;;;;;;;18.90;100.00;-21194.22;5033491;28;20467;-69
2021/08/22 00:43:45;;;;;;;0.70;0.70;;;;;;;18.85;100.00;-21192.72;5033392;28;20426;-69
2021/08/22 00:46:12;;;;;;;0.70;0.70;;;;;;;18.78;100.00;-21190.94;5032238;28;20944;-68
2021/08/22 00:48:40;;;;;;;0.70;0.60;;;;;;;18.72;100.00;-21189.44;5033501;28;20436;-68
2021/08/22 00:51:07;;;;;;;0.70;0.70;;;;;;;18.64;100.00;-21187.09;5037290;28;20466;-68
2021/08/22 00:53:37;;;;;;;0.70;0.70;;;;;;;18.59;100.00;-21185.84;5032620;28;20483;-68
2021/08/22 00:56:05;;;;;;;0.80;0.80;;;;;;;18.59;100.00;-21185.84;5038188;28;20993;-68
2021/08/22 00:58:32;;;;;;;0.70;0.70;;;;;;;18.63;100.00;-21186.97;5052378;28;20445;-68
2021/08/22 01:01:00;;;;;;;0.70;0.70;;;;;;;18.72;100.00;-21189.44;5052018;28;21064;-69
2021/08/22 01:03:37;;;;;;;0.70;0.60;;;;;;;18.78;100.00;-21191.06;5049604;28;20439;-68
2021/08/22 01:06:20;;;;;;;0.70;0.63;;;;;;;18.82;100.00;-21192.16;5032030;28;20458;-69
2021/08/22 01:08:56;;;;;;;0.70;0.70;;;;;;;18.82;100.00;-21192.16;5033299;28;21041;-68
2021/08/22 01:11:27;;;;;;;0.80;0.80;;;;;;;18.88;100.00;-21193.53;5033323;28;20419;-72
2021/08/22 01:14:00;;;;;;;0.70;0.70;;;;;;;18.93;100.00;-21194.91;5033243;28;20907;-68
2021/08/22 01:16:32;;;;;;;0.77;0.73;;;;;;;18.97;100.00;-21196.13;5031881;28;20442;-68
2021/08/22 01:19:02;;;;;;;1.87;1.00;;;;;;;19.06;100.00;-21198.44;5045269;28;20449;-68
2021/08/22 01:21:31;;;;;;;0.97;0.97;;;;;;;19.07;100.00;-21198.72;5052225;28;20448;-68
2021/08/22 01:24:03;;;;;;;0.70;0.70;;;;;;;19.21;100.00;-21202.41;5051978;28;20479;-68
2021/08/22 01:26:37;;;;;;;1.00;0.70;;;;;;;19.33;100.00;-21205.56;5049340;28;20513;-68
2021/08/22 01:29:06;;;;;;;0.70;0.70;;;;;;;19.39;100.00;-21207.22;5036244;28;20440;-68
2021/08/22 01:31:37;;;;;;;0.70;0.60;;;;;;;19.38;100.00;-21206.94;5042874;28;20930;-68
2021/08/22 01:34:06;;;;;;;0.70;0.70;;;;;;;19.35;100.00;-21206.13;5054252;28;20441;-68
2021/08/22 01:36:35;;;;;;;0.70;0.67;;;;;;;19.30;100.00;-21205.03;5055642;28;20431;-68
2021/08/22 01:39:03;;;;;;;0.70;0.60;;;;;;;19.31;100.00;-21205.16;5056534;28;20446;-68
2021/08/22 01:41:31;;;;;;;0.70;0.70;;;;;;;19.19;100.00;-21202.00;5056848;28;20542;-68
2021/08/22 01:43:59;;;;;;;0.80;0.80;;;;;;;19.26;100.00;-21203.94;5055258;28;20486;-68
2021/08/22 01:46:27;;;;;;;0.70;0.60;;;;;;;19.24;100.00;-21203.25;5035134;28;20438;-68
2021/08/22 01:48:56;;;;;;;0.90;0.90;;;;;;;19.18;100.00;-21201.72;5055099;28;20443;-69
2021/08/22 01:51:26;;;;;;;0.70;0.60;;;;;;;19.14;100.00;-21200.66;5056694;28;20406;-68
2021/08/22 01:53:57;;;;;;;0.83;0.77;;;;;;;19.18;100.00;-21201.59;5056386;28;20450;-69
2021/08/22 01:56:25;;;;;;;0.70;0.60;;;;;;;19.10;100.00;-21065.63;5055114;28;20437;-68
2021/08/22 01:58:52;;;;;;;0.70;0.60;;;;;;;19.00;100.00;-20915.69;5040696;28;20445;-68
2021/08/22 02:01:20;;;;;;;0.70;0.60;;;;;;;18.94;100.00;-20721.19;5035448;28;20522;-68
2021/08/22 02:03:50;;;;;;;0.70;0.70;;;;;;;18.88;100.00;-20481.00;5041440;28;20463;-68
2021/08/22 02:06:23;;;;;;;0.70;0.70;;;;;;;18.90;100.00;-20232.91;5054997;28;20483;-70
2021/08/22 02:08:59;;;;;;;0.70;0.70;;;;;;;18.89;100.00;-19953.28;5053763;28;20474;-68
2021/08/22 02:11:32;;;;;;;0.70;0.60;;;;;;;18.87;100.00;-19663.34;5050722;28;20447;-68
2021/08/22 02:14:00;;;;;;;0.70;0.70;;;;;;;18.87;100.00;-19373.91;5036297;28;20420;-68
2021/08/22 02:16:28;;;;;;;0.70;0.70;;;;;;;18.86;100.00;-19109.59;5036371;28;20758;-68
2021/08/22 02:18:58;;;;;;;0.70;0.70;;;;;;;18.85;100.00;-18855.44;5034327;28;20422;-68
2021/08/22 02:21:25;;;;;;;0.70;0.70;;;;;;;18.82;100.00;-18623.88;5043731;28;20463;-68
2021/08/22 02:23:57;;;;;;;0.70;0.70;;;;;;;18.79;100.00;-18392.09;5054446;28;20494;-68
2021/08/22 02:26:24;;;;;;;0.93;0.90;;;;;;;18.74;100.00;-18289.38;5056256;28;20465;-68
2021/08/22 02:28:52;;;;;;;0.70;0.60;;;;;;;18.85;100.00;-18073.22;5048631;28;20442;-68
2021/08/22 02:31:20;;;;;;;0.80;0.80;;;;;;;18.91;100.00;-17678.25;5045028;28;20440;-69
2021/08/22 02:33:48;;;;;;;0.70;0.70;;;;;;;18.92;100.00;-17432.03;5053832;28;20451;-71
2021/08/22 02:36:15;;;;;;;0.80;0.70;;;;;;;18.94;100.00;-17239.34;5055853;28;20410;-68
2021/08/22 02:38:42;;;;;;;0.80;0.80;;;;;;;18.96;100.00;-17140.66;5055848;28;21001;-68
2021/08/22 02:41:10;;;;;;;1.00;0.90;;;;;;;18.94;100.00;-16954.75;5054619;28;21047;-68
2021/08/22 02:43:37;;;;;;;0.70;0.60;;;;;;;18.92;100.00;-16964.50;5055463;28;20434;-68
2021/08/22 02:46:04;;;;;;;0.70;0.70;;;;;;;18.89;100.00;-17002.00;5055547;28;20452;-69
2021/08/22 02:48:31;;;;;;;0.70;0.60;;;;;;;18.90;100.00;-17022.53;5044537;28;20450;-71
2021/08/22 02:50:58;;;;;;;0.70;0.70;;;;;;;18.93;100.00;-17079.06;5034932;28;20429;-69
2021/08/22 02:53:28;;;;;;;0.70;0.60;;;;;;;18.96;100.00;-16886.66;5035424;28;20443;-69
2021/08/22 02:55:55;;;;;;;0.70;0.60;;;;;;;18.99;100.00;-16607.69;5018161;28;20735;-69
2021/08/22 02:58:23;;;;;;;0.70;0.70;;;;;;;19.02;100.00;-16285.34;5036660;28;21020;-69
2021/08/22 03:00:50;;;;;;;0.80;0.80;;;;;;;18.99;100.00;-16221.22;5041411;28;20866;-68
2021/08/22 03:03:17;;;;;;;0.77;0.73;;;;;;;19.01;100.00;-16015.69;5053454;28;20424;-68
2021/08/22 03:05:45;;;;;;;0.80;0.73;;;;;;;19.01;100.00;-15804.78;5054441;28;20445;-69
2021/08/22 03:08:12;;;;;;;0.80;0.70;;;;;;;19.10;100.00;-15544.44;5055530;28;20788;-68
2021/08/22 03:10:39;;;;;;;0.70;0.60;;;;;;;19.08;100.00;-15429.63;5053779;28;20938;-69
2021/08/22 03:13:07;;;;;;;0.70;0.70;;;;;;;19.08;100.00;-15137.19;5054093;28;20443;-69
2021/08/22 03:15:36;;;;;;;0.80;0.70;;;;;;;19.12;100.00;-14870.72;5054561;28;20527;-69
2021/08/22 03:18:03;;;;;;;0.80;0.70;;;;;;;19.08;100.00;-14669.13;5054637;28;20811;-69
2021/08/22 03:20:30;;;;;;;1.63;0.80;;;;;;;19.04;100.00;-14330.22;5047652;28;20560;-68
2021/08/22 03:22:57;;;;;;;0.70;0.70;;;;;;;19.02;100.00;-14146.75;5054162;28;20484;-68
2021/08/22 03:25:24;;;;;;;0.80;0.70;;;;;;;19.04;100.00;-13946.13;5054977;28;20466;-68
2021/08/22 03:27:51;;;;;;;0.70;0.70;;;;;;;19.11;100.00;-13537.56;5047836;28;20440;-68
2021/08/22 03:30:18;;;;;;;0.70;0.60;;;;;;;19.03;100.00;-13113.97;5034409;28;20431;-69
2021/08/22 03:32:46;;;;;;;0.70;0.70;;;;;;;19.02;100.00;-12594.72;5051067;28;20487;-70
2021/08/22 03:35:14;;;;;;;0.70;0.60;;;;;;;19.04;100.00;-12238.66;5051574;28;20424;-69
2021/08/22 03:37:41;;;;;;;0.80;0.70;;;;;;;19.10;100.00;-11592.78;5053837;28;20937;-68
2021/08/22 03:40:09;;;;;;;0.70;0.60;;;;;;;19.13;100.00;-11091.50;5054394;28;20431;-68
2021/08/22 03:42:36;;;;;;;1.00;0.80;;;;;;;19.11;100.00;-10523.34;5053963;28;20478;-68
2021/08/22 03:45:04;;;;;;;0.70;0.70;;;;;;;19.04;100.00;-10161.06;5052929;28;20542;-68
2021/08/22 03:47:31;;;;;;;1.00;0.70;;;;;;;19.03;100.00;-9936.78;5054146;28;20537;-69
2021/08/22 03:49:59;;;;;;;0.73;0.70;;;;;;;19.06;100.00;-9532.00;5054154;28;20479;-69
2021/08/22 03:52:27;;;;;;;1.27;1.00;;;;;;;19.04;100.00;-8994.28;5053680;28;20955;-68
2021/08/22 03:54:54;;;;;;;0.70;0.60;;;;;;;19.03;100.00;-8599.28;5054518;28;20505;-68
2021/08/22 03:57:22;;;;;;;0.70;0.60;;;;;;;19.05;100.00;-8077.03;5051739;28;20515;-69
2021/08/22 03:59:49;;;;;;;0.70;0.70;;;;;;;19.01;100.00;-7719.97;5051666;28;20538;-68
2021/08/22 04:02:16;;;;;;;0.70;0.63;;;;;;;18.97;100.00;-7627.97;5033697;28;20470;-69
2021/08/22 04:05:11;;;;;;;0.70;0.60;;;;;;;18.90;100.00;-7668.38;5045274;28;20444;-69
2021/08/22 04:07:44;;;;;;;0.70;0.60;;;;;;;18.95;100.00;-7097.75;5032855;28;20483;-69
2021/08/22 04:10:11;;;;;;;0.73;0.70;;;;;;;19.00;100.00;-6761.44;5034169;28;20907;-69
2021/08/22 04:12:38;;;;;;;0.70;0.60;;;;;;;19.01;100.00;-6356.09;5042182;28;20464;-69
2021/08/22 04:15:05;;;;;;;0.80;0.80;;;;;;;18.99;100.00;-6175.00;5053393;28;20426;-69
2021/08/22 04:17:32;;;;;;;1.07;0.97;;;;;;;18.97;100.00;-5744.00;5053934;28;20844;-69
2021/08/22 04:19:59;;;;;;;0.70;0.67;;;;;;;18.95;100.00;-5404.78;5053797;28;20480;-69
2021/08/22 04:22:28;;;;;;;0.73;0.73;;;;;;;18.91;100.00;-5101.22;5051993;28;20474;-69
2021/08/22 04:24:55;;;;;;;0.70;0.70;;;;;;;18.92;100.00;-4586.03;5045467;28;20976;-69
2021/08/22 04:27:22;;;;;;;0.70;0.60;;;;;;;18.93;100.00;-4226.34;5038393;28;20452;-69
2021/08/22 04:29:50;;;;;;;0.97;0.97;;;;;;;18.92;100.00;-3981.41;5033662;28;20428;-69
2021/08/22 04:32:18;;;;;;;0.70;0.60;;;;;;;18.88;100.00;-3568.13;5033979;28;20409;-69
2021/08/22 04:34:45;;;;;;;0.70;0.67;;;;;;;18.92;100.00;-3062.81;5045795;28;20505;-69
2021/08/22 04:37:12;;;;;;;0.70;0.70;;;;;;;18.87;100.00;-2792.44;5053453;28;20427;-69
2021/08/22 04:39:40;;;;;;;0.80;0.80;;;;;;;18.80;100.00;-2695.63;5048854;28;20480;-68
2021/08/22 04:42:07;;;;;;;0.70;0.70;;;;;;;18.82;100.00;-2471.00;5033793;28;20556;-68
2021/08/22 04:44:35;;;;;;;0.70;0.60;;;;;;;18.80;100.00;-2118.84;5033422;28;20447;-69
2021/08/22 04:47:05;;;;;;;0.70;0.70;;;;;;;18.74;100.00;-1797.50;5033733;28;20431;-68
2021/08/22 04:49:33;;;;;;;0.70;0.60;;;;;;;18.85;100.00;-1317.16;5032617;28;20421;-69
2021/08/22 04:52:00;;;;;;;0.77;0.77;;;;;;;18.88;100.00;-939.09;5047204;28;20542;-69
2021/08/22 04:54:28;;;;;;;0.70;0.67;;;;;;;18.77;100.00;-834.97;5049705;28;20550;-69
2021/08/22 04:56:56;;;;;;;0.70;0.70;;;;;;;18.72;100.00;-863.38;5052649;28;20437;-69
2021/08/22 04:59:24;;;;;;;0.73;0.70;;;;;;;18.78;100.00;-538.75;5052678;28;20886;-69
2021/08/22 05:01:52;;;;;;;0.70;0.60;;;;;;;18.67;100.00;-360.72;5041375;28;20558;-69
2021/08/22 05:04:24;;;;;;;0.70;0.63;;;;;;;18.65;100.00;-297.00;5045574;28;20431;-69
2021/08/22 05:06:51;;;;;;;0.70;0.70;;;;;;;18.70;100.00;88.84;5056144;28;20445;-69
2021/08/22 05:09:18;;;;;;;0.70;0.60;;;;;;;18.76;100.00;444.31;5055979;28;20457;-69
2021/08/22 05:11:45;;;;;;;0.80;0.80;;;;;;;18.84;100.00;748.88;5057303;28;20429;-69
2021/08/22 05:14:14;;;;;;;0.80;0.80;;;;;;;18.83;100.00;1052.88;5046894;28;20436;-69
2021/08/22 05:16:41;;;;;;;1.10;0.93;;;;;;;18.71;100.00;870.47;5044473;28;20532;-69
2021/08/22 05:19:08;;;;;;;1.10;1.00;;;;;;;18.66;100.00;1033.50;5037681;28;20436;-69
2021/08/22 05:21:35;;;;;;;0.90;0.90;;;;;;;18.65;100.00;1485.50;5052283;28;20548;-69
2021/08/22 05:24:03;;;;;;;0.70;0.70;;;;;;;18.56;100.00;1763.13;5050959;28;20452;-69
2021/08/22 05:26:30;;;;;;;0.90;0.80;;;;;;;18.54;100.00;1573.88;5053298;28;20443;-69
2021/08/22 05:28:57;;;;;;;0.77;0.70;;;;;;;18.52;100.00;1683.50;5050166;28;20452;-69
2021/08/22 05:31:25;;;;;;;0.80;0.80;;;;;;;18.43;100.00;1884.38;5055683;28;20508;-69
2021/08/22 05:33:52;;;;;;;0.80;0.70;;;;;;;18.40;100.00;1758.94;5054476;28;20628;-69
2021/08/22 05:36:21;;;;;;;0.80;0.80;;;;;;;18.51;100.00;2465.03;5046839;28;20418;-69
2021/08/22 05:38:55;;;;;;;1.30;0.90;;;;;;;18.55;100.00;2664.81;5055999;28;20500;-69
2021/08/22 05:41:23;;;;;;;0.80;0.70;;;;;;;18.66;100.00;2804.00;5050240;28;22009;-69
2021/08/22 05:43:50;;;;;;;1.10;1.00;;;;;;;18.71;100.00;3177.72;5047119;28;20448;-69
2021/08/22 05:46:17;;;;;;;0.77;0.77;;;;;;;18.72;100.00;3136.97;5050051;28;20424;-69
2021/08/22 05:48:46;;;;;;;0.70;0.70;;;;;;;18.81;100.00;3342.56;5045640;28;20450;-69
2021/08/22 05:51:15;;;;;;;0.80;0.80;;;;;;;18.87;100.00;3504.34;5049404;28;20492;-69
2021/08/22 05:53:42;;;;;;;1.10;1.00;;;;;;;18.82;100.00;3700.63;5055856;28;20459;-69
2021/08/22 05:56:10;;;;;;;0.80;0.73;;;;;;;18.81;100.00;3470.41;5052943;28;20439;-69
2021/08/22 05:58:37;;;;;;;0.70;0.70;;;;;;;18.88;100.00;3368.94;5052812;28;20823;-69
2021/08/22 06:01:04;;;;;;;0.77;0.77;;;;;;;18.95;100.00;3536.03;5045631;28;20458;-69
2021/08/22 06:03:31;;;;;;;0.80;0.80;;;;;;;18.89;100.00;3476.41;5040644;28;20485;-69
2021/08/22 06:06:05;;;;;;;1.37;0.80;;;;;;;18.93;100.00;3648.25;5051154;28;20459;-69
2021/08/22 06:08:32;;;;;;;0.70;0.70;;;;;;;19.00;100.00;3881.97;5043519;28;20460;-70
2021/08/22 06:10:59;;;;;;;0.80;0.70;;;;;;;19.12;100.00;3934.59;5037554;28;20837;-69
2021/08/22 06:13:26;;;;;;;0.80;0.77;;;;;;;19.24;100.00;3859.53;5036341;28;20417;-69
2021/08/22 06:15:53;;;;;;;1.53;1.40;;;;;;;19.38;100.00;3510.66;5034454;28;20476;-68
2021/08/22 06:18:20;;;;;;;0.70;0.60;;;;;;;19.58;100.00;3106.22;5035899;28;20425;-68
2021/08/22 06:20:47;;;;;;;0.70;0.70;;;;;;;19.53;100.00;2105.09;5046789;28;20446;-70
2021/08/22 06:23:16;;;;;;;1.77;1.67;;;;;;;19.42;100.00;1441.47;5055952;28;20704;-70
2021/08/22 06:25:43;;;;;;;1.27;1.17;;;;;;;19.42;100.00;191.06;5055953;28;20432;-71
2021/08/22 06:28:10;;;;;;;7.10;1.63;;;;;;;19.49;100.00;-715.94;5053476;28;20440;-70
2021/08/22 06:30:37;;;;;;;0.73;0.73;;;;;;;19.81;100.00;-1890.34;5055437;28;20500;-70
2021/08/22 06:33:04;;;;;;;1.87;1.40;;;;;;;19.88;100.00;-2299.13;5048191;28;20432;-72
2021/08/22 06:35:31;;;;;;;0.70;0.60;;;;;;;19.92;100.00;-4476.56;5054011;28;20997;-70
2021/08/22 06:37:58;;;;;;;0.70;0.67;;;;;;;19.90;100.00;-9079.75;5039336;28;20460;-70
2021/08/22 06:40:27;;;;;;;0.80;0.80;;;;;;;20.03;100.00;-12730.34;5035768;28;20444;-70
2021/08/22 06:42:54;;;;;;;2.03;0.93;;;;;;;20.13;100.00;-17060.19;5035574;28;20515;-70
2021/08/22 06:45:22;;;;;;;0.80;0.80;;;;;;;20.04;100.00;-19264.63;5035584;28;20384;-69
2021/08/22 06:47:51;;;;;;;0.87;0.87;;;;;;;19.90;100.00;-21220.88;5035154;28;20834;-69
2021/08/22 06:50:20;;;;;;;0.70;0.70;;;;;;;19.95;100.00;-21222.38;5036557;28;20436;-70
2021/08/22 06:52:47;;;;;;;0.80;0.80;;;;;;;20.07;100.00;-21225.53;5050057;28;20441;-70
2021/08/22 06:55:15;;;;;;;0.80;0.70;;;;;;;20.19;100.00;-21228.66;5055484;28;20435;-70
2021/08/22 06:57:48;;;;;;;0.90;0.90;;;;;;;20.23;100.00;-21229.91;5053749;28;20468;-70
2021/08/22 07:00:17;;;;;;;0.90;0.90;;;;;;;20.24;100.00;-21230.16;5055014;28;20535;-70
2021/08/22 07:02:45;;;;;;;0.70;0.60;;;;;;;20.28;100.00;-21231.25;5054008;28;20544;-70
2021/08/22 07:05:13;;;;;;;0.70;0.60;;;;;;;20.57;100.00;-21238.91;5054937;28;20426;-72
2021/08/22 07:07:40;;;;;;;0.80;0.80;;;;;;;20.50;100.00;-21237.00;5054635;28;20946;-70
2021/08/22 07:10:09;;;;;;;0.80;0.70;;;;;;;20.63;100.00;-21240.41;5052894;28;20826;-69
2021/08/22 07:12:36;;;;;;;0.70;0.60;;;;;;;20.68;100.00;-21241.91;5043971;28;20828;-70
2021/08/22 07:15:06;;;;;;;2.20;1.23;;;;;;;21.06;100.00;-21252.03;5041896;28;20504;-70
2021/08/22 07:17:33;;;;;;;1.00;0.90;;;;;;;21.13;100.00;-21253.94;5055885;28;20502;-71
2021/08/22 07:20:01;;;;;;;0.80;0.70;;;;;;;21.18;100.00;-21255.28;5034513;28;20765;-70
2021/08/22 07:22:28;;;;;;;0.70;0.60;;;;;;;21.36;100.00;-21259.94;5048291;28;20464;-70
2021/08/22 07:24:56;;;;;;;0.80;0.80;;;;;;;21.44;100.00;-21262.13;5054891;28;20446;-70
2021/08/22 07:27:23;;;;;;;0.70;0.70;;;;;;;21.53;100.00;-21264.56;5050971;28;20495;-70
2021/08/22 07:29:50;;;;;;;0.83;0.80;;;;;;;21.32;100.00;-21258.84;5034762;28;20987;-70
2021/08/22 07:32:19;;;;;;;0.70;0.60;;;;;;;21.26;100.00;-21257.19;5034867;28;20428;-70
2021/08/22 07:34:46;;;;;;;1.37;1.27;;;;;;;21.23;100.00;-21256.66;5042396;28;20415;-70
2021/08/22 07:37:13;;;;;;;0.77;0.70;;;;;;;21.09;100.00;-21252.84;5034163;28;20405;-70
2021/08/22 07:39:39;;;;;;;1.07;0.97;;;;;;;21.07;100.00;-21252.28;5038871;28;20462;-70
2021/08/22 07:42:07;;;;;;;0.73;0.70;;;;;;;21.05;100.00;-21251.75;5054550;28;20797;-69
2021/08/22 07:44:34;;;;;;;0.70;0.60;;;;;;;21.36;100.00;-21259.94;5054548;28;20452;-70
2021/08/22 07:47:00;;;;;;;1.20;0.90;;;;;;;21.43;100.00;-21261.97;5054376;28;20776;-70
2021/08/22 07:49:29;;;;;;;0.83;0.80;;;;;;;21.46;100.00;-21262.66;5054149;28;20438;-70
2021/08/22 07:51:56;;;;;;;0.80;0.70;;;;;;;21.71;100.00;-21269.47;5051864;28;20950;-70
2021/08/22 07:54:23;;;;;;;0.70;0.60;;;;;;;21.59;100.00;-21266.06;5053973;28;20431;-70
2021/08/22 07:56:50;;;;;;;0.70;0.70;;;;;;;21.20;100.00;-21255.69;5055472;28;20446;-70
2021/08/22 07:59:17;;;;;;;0.70;0.60;;;;;;;21.02;100.00;-21250.78;5055737;28;20432;-70
2021/08/22 08:01:44;;;;;;;0.70;0.70;;;;;;;20.79;100.00;-21244.66;5052149;28;20411;-70
2021/08/22 08:04:12;;;;;;;0.80;0.80;;;;;;;20.61;100.00;-21240.00;5053913;28;20953;-70
2021/08/22 08:06:40;;;;;;;0.80;0.70;;;;;;;20.83;100.00;-21245.75;5052567;28;20426;-71
2021/08/22 08:09:07;;;;;;;1.07;1.00;;;;;;;21.00;100.00;-21250.38;5054077;28;20454;-71
2021/08/22 08:11:34;;;;;;;1.00;0.90;;;;;;;20.96;100.00;-21249.44;5053972;28;20466;-71
2021/08/22 08:14:01;;;;;;;0.70;0.60;;;;;;;20.64;100.00;-21240.81;5051585;28;20430;-70
2021/08/22 08:16:30;;;;;;;0.70;0.70;;;;;;;20.30;100.00;-21231.53;5043636;28;20465;-70
2021/08/22 08:19:01;;;;;;;0.80;0.70;;;;;;;20.00;100.00;-21223.75;5033427;28;20403;-70
2021/08/22 08:21:28;;;;;;;0.80;0.70;;;;;;;19.85;100.00;-21219.53;5038305;28;20927;-70
2021/08/22 08:23:59;;;;;;;0.70;0.60;;;;;;;19.68;100.00;-21215.16;5049196;28;20521;-70
2021/08/22 08:26:26;;;;;;;0.70;0.70;;;;;;;19.68;100.00;-21215.00;5053560;28;20414;-70
2021/08/22 08:28:53;;;;;;;0.70;0.70;;;;;;;19.60;100.00;-21212.94;5053749;28;20482;-70
2021/08/22 08:31:20;;;;;;;1.00;0.90;;;;;;;19.53;100.00;-21211.03;5053869;28;20419;-70
2021/08/22 08:33:49;;;;;;;0.80;0.70;;;;;;;19.59;100.00;-21212.53;5049920;28;20437;-69
2021/08/22 08:36:16;;;;;;;0.80;0.80;;;;;;;19.72;100.00;-21216.25;5053301;28;20420;-70
2021/08/22 08:38:44;;;;;;;0.83;0.70;;;;;;;19.88;100.00;-18813.09;5052892;28;20454;-70
2021/08/22 08:41:12;;;;;;;0.70;0.70;;;;;;;20.01;100.00;-17592.31;5053601;28;20395;-70
2021/08/22 08:43:39;;;;;;;0.80;0.80;;;;;;;20.34;100.00;-17448.84;5040215;28;20461;-70
2021/08/22 08:46:08;;;;;;;0.80;0.70;;;;;;;20.39;100.00;-19140.59;5051338;28;20410;-70
2021/08/22 08:48:36;;;;;;;0.80;0.80;;;;;;;20.61;100.00;-19784.78;5034805;28;20457;-70
2021/08/22 08:51:16;;;;;;;2.07;1.97;;;;;;;20.74;100.00;-21243.41;5041873;28;20481;-71
2021/08/22 08:53:43;;;;;;;0.70;0.60;;;;;;;20.85;100.00;-21246.28;5033314;28;20448;-70
2021/08/22 08:56:11;;;;;;;0.80;0.70;;;;;;;20.79;100.00;-21244.66;5035968;28;20391;-69
2021/08/22 08:58:39;;;;;;;1.13;0.80;;;;;;;20.81;100.00;-21245.19;5040490;28;20411;-70
2021/08/22 09:01:06;;;;;;;0.77;0.77;;;;;;;20.66;100.00;-21241.25;5045936;28;20463;-69
2021/08/22 09:03:34;;;;;;;1.20;1.10;;;;;;;20.74;100.00;-21243.41;5043174;28;20455;-70
2021/08/22 09:06:45;;;;;;;0.93;0.80;;;;;;;21.93;100.00;-21275.19;5046747;28;20989;-71
2021/08/22 09:09:51;;;;;;;0.90;0.80;;;;;;;23.06;100.00;-21305.44;5001081;28;20469;-70
2021/08/22 09:12:53;;;;;;;1.43;1.20;;;;;;;24.01;100.00;-21330.59;5060194;28;20569;-70
2021/08/22 09:16:02;;;;;;;0.77;0.70;;;;;;;24.74;100.00;-21350.00;5008771;28;20444;-70
2021/08/22 09:19:11;;;;;;;1.57;0.83;;;;;;;24.55;100.00;-21344.97;4963239;28;20511;-70
2021/08/22 09:22:11;;;;;;;1.10;1.00;;;;;;;23.10;100.00;-21306.38;5034078;28;20999;-70
2021/08/22 09:25:23;;;;;;;0.77;0.70;;;;;;;22.41;100.00;-21288.00;5033305;28;20448;-70
2021/08/22 09:28:28;;;;;;;0.70;0.70;;;;;;;21.99;100.00;-21276.84;5034562;28;20531;-70
2021/08/22 09:31:37;;;;;;;0.70;0.60;;;;;;;21.56;100.00;-21265.38;5033380;28;20400;-71
2021/08/22 09:34:40;;;;;;;0.90;0.80;;;;;;;21.79;100.00;-21271.38;5040536;28;20901;-70
2021/08/22 09:37:49;;;;;;;0.70;0.60;;;;;;;21.78;100.00;-21271.25;5049657;28;20447;-70
2021/08/22 09:40:54;;;;;;;0.73;0.70;;;;;;;21.50;100.00;-21263.75;5049495;28;20512;-70
2021/08/22 09:43:58;;;;;;;1.63;1.00;;;;;;;21.41;100.00;-21261.28;5043494;28;20461;-70
2021/08/22 09:50:26;;;;;;;0.80;0.80;;;;;;;21.95;100.00;-21275.75;5091371;28;20524;-70
2021/08/22 09:53:31;;;;;;;1.43;1.33;;;;;;;22.11;100.00;-21280.09;5085493;28;20435;-70
2021/08/22 09:56:31;;;;;;;0.70;0.70;;;;;;;22.13;100.00;-21280.66;5070352;28;20454;-70
2021/08/22 09:59:43;;;;;;;0.80;0.80;;;;;;;21.85;100.00;-21273.16;5059506;28;20943;-70
2021/08/22 10:02:37;;;;;;;0.80;0.60;;;;;;;21.78;100.00;-21271.09;5034571;28;20542;-69
2021/08/22 10:05:30;;;;;;;0.80;0.70;;;;;;;22.44;100.00;-21288.81;5071337;28;20875;-70
2021/08/22 10:08:15;;;;;;;0.83;0.77;;;;;;;22.62;100.00;-21293.72;5078181;28;20495;-70
2021/08/22 10:10:44;;;;;;;1.70;0.97;;;;;;;22.17;100.00;-21281.75;5066801;28;20454;-70
2021/08/22 10:13:14;;;;;;;0.80;0.73;;;;;;;21.71;100.00;-21269.47;5070837;28;20431;-71
2021/08/22 10:15:43;;;;;;;1.07;0.97;;;;;;;21.53;100.00;-21264.56;5068278;28;20431;-70
2021/08/22 10:18:18;;;;;;;0.80;0.80;;;;;;;21.66;100.00;-21267.97;5103077;28;20435;-69
2021/08/22 10:20:47;;;;;;;0.80;0.70;;;;;;;21.85;100.00;-21273.03;5069842;28;20415;-70
2021/08/22 10:23:49;;;;;;;0.80;0.70;;;;;;;22.11;100.00;-21280.09;5069437;28;20512;-70
2021/08/22 10:26:57;;;;;;;0.80;0.70;;;;;;;22.46;100.00;-21289.38;5070015;28;20433;-70
2021/08/22 10:29:28;;;;;;;0.70;0.60;;;;;;;22.70;100.00;-21295.63;5069576;28;20868;-70
2021/08/22 10:32:12;;;;;;;0.90;0.80;;;;;;;23.71;100.00;-21322.56;5069004;28;20451;-70
2021/08/22 10:34:41;;;;;;;0.70;0.60;;;;;;;24.46;100.00;-21342.66;5069345;28;20424;-71
2021/08/22 10:37:30;;;;;;;1.17;1.07;;;;;;;25.83;100.00;-21378.88;5066181;28;20430;-70
2021/08/22 10:39:59;;;;;;;0.93;0.70;;;;;;;26.80;100.00;-21404.72;5068031;28;20435;-72
2021/08/22 10:42:27;;;;;;;0.80;0.60;;;;;;;26.16;100.00;-21387.81;5070010;28;20547;-71
2021/08/22 10:44:55;;;;;;;0.87;0.70;;;;;;;27.07;100.00;-21411.78;5070110;28;20412;-71
2021/08/22 10:47:39;;;;;;;0.80;0.73;;;;;;;25.83;100.00;-21378.88;5067402;28;20454;-71
2021/08/22 10:50:10;;;;;;;0.87;0.70;;;;;;;25.74;100.00;-21376.56;5069595;28;20466;-70
2021/08/22 10:52:39;;;;;;;1.00;0.90;;;;;;;24.80;100.00;-21351.63;5069412;28;20458;-71
2021/08/22 10:55:27;;;;;;;0.70;0.60;;;;;;;24.50;100.00;-21343.75;5069336;28;20436;-71
2021/08/22 10:57:54;;;;;;;0.80;0.60;;;;;;;24.10;100.00;-21333.16;5065968;28;20803;-70
2021/08/22 11:00:22;;;;;;;1.00;0.93;;;;;;;24.30;100.00;-21338.31;5057793;28;20497;-70
2021/08/22 11:02:50;;;;;;;0.80;0.70;;;;;;;25.16;100.00;-21361.13;5053678;28;20439;-70
2021/08/22 11:05:21;;;;;;;0.80;0.80;;;;;;;25.68;100.00;-21375.09;5056466;28;20450;-70
2021/08/22 11:07:51;;;;;;;0.70;0.60;;;;;;;26.42;100.00;-21394.72;5049218;28;20448;-71
2021/08/22 11:10:20;;;;;;;1.00;0.90;;;;;;;26.36;100.00;-21393.09;5056199;28;20416;-71
2021/08/22 11:12:49;;;;;;;0.70;0.50;;;;;;;26.08;100.00;-21385.66;5054107;28;20432;-70
2021/08/22 11:15:25;;;;;;;0.70;0.60;;;;;;;25.49;100.00;-21369.94;5053400;28;20498;-70
2021/08/22 11:17:53;;;;;;;0.70;0.60;;;;;;;25.52;100.00;-21370.88;5088225;28;20439;-70
2021/08/22 11:20:26;;;;;;;0.70;0.60;;;;;;;25.30;100.00;-21364.91;5056077;28;20501;-70
2021/08/22 11:23:04;;;;;;;0.97;0.83;;;;;;;24.86;100.00;-21353.13;5054481;28;20456;-70
2021/08/22 11:25:32;;;;;;;0.93;0.83;;;;;;;25.16;100.00;-21361.13;5055610;28;20424;-69
2021/08/22 11:28:07;;;;;;;0.70;0.60;;;;;;;25.74;100.00;-21376.72;5055240;28;20436;-70
2021/08/22 11:30:35;;;;;;;0.70;0.50;;;;;;;25.33;100.00;-21365.72;5054078;28;20435;-70
2021/08/22 11:33:03;;;;;;;0.70;0.60;;;;;;;25.42;100.00;-21368.16;5055851;28;20453;-70
2021/08/22 11:35:35;;;;;;;0.70;0.60;;;;;;;25.98;100.00;-21383.06;5052759;28;20432;-71
2021/08/22 11:38:02;;;;;;;0.70;0.60;;;;;;;26.71;100.00;-21402.31;5051489;28;20463;-70
2021/08/22 11:40:31;;;;;;;0.70;0.50;;;;;;;28.29;100.00;-21444.19;5055219;28;20421;-70
2021/08/22 11:43:00;;;;;;;0.70;0.50;;;;;;;28.05;100.00;-21437.72;5054701;28;20459;-70